Suez Canal Bridge — HODM — position and weather

sailwx.info

Track history (hours):
 
Tides and Currents Weather Stations Pressure Air Temp Water Temp Dewpoint Dewpoint Depression Visibility Wind Speed Wind Dir Waves Ship Positions

Suez Canal Bridge

Last reported at 2015-Mar-17 14:33 UTC. Time now 2015-Apr-02 06:38 UTC.
Position N 31°51' W 080°06'.
Warning: this ship's position is 15 days out of date.

Length 284.7 m; beam 40 m.

Type: Cargo ship. MMSI: 353704000.

Date/timePositionNaut miles runAvg speedWind from/ knotsBaromVisibWave heightAir tempDewpointWater temp
2015-Mar-17 14:33N 31°51' W 080°06'1717.2
2015-Mar-17 13:33N 31°55' W 080°26'9 9.4
2015-Mar-17 12:33N 31°56' W 080°37'1111.2
2015-Mar-17 11:33N 32°01' W 080°49'1111.4
2015-Mar-17 10:34N 32°06' W 081°01'5 5.3
2015-Mar-17 09:34N 32°06' W 081°07'2 2.2
2015-Mar-17 08:32N 32°08' W 081°09'0 0.0
2015-Mar-17 07:32N 32°08' W 081°09'0 0.0
2015-Mar-17 06:32N 32°08' W 081°09'0 0.0
2015-Mar-17 05:32N 32°08' W 081°09'0 0.0
2015-Mar-17 04:32N 32°08' W 081°09'0 0.0
2015-Mar-17 03:32N 32°08' W 081°09'0 0.0
2015-Mar-17 02:32N 32°08' W 081°09'0 0.0
2015-Mar-17 01:32N 32°08' W 081°09'0 0.0
2015-Mar-17 00:32N 32°08' W 081°09'0 0.0
2015-Mar-16 23:32N 32°08' W 081°09'0 0.0
2015-Mar-16 22:32N 32°08' W 081°09'0 0.0
2015-Mar-16 21:32N 32°08' W 081°09'0 0.0
2015-Mar-16 20:32N 32°08' W 081°09'0 0.0
2015-Mar-16 19:32N 32°08' W 081°09'0 0.0
2015-Mar-16 18:32N 32°08' W 081°09'0 0.0
2015-Mar-16 17:32N 32°08' W 081°09'0 0.0
2015-Mar-16 16:32N 32°08' W 081°09'0 0.0
2015-Mar-16 12:32N 32°08' W 081°09'0 0.0
2015-Mar-16 11:32N 32°08' W 081°09'0 0.0
2015-Mar-16 10:32N 32°08' W 081°09'0 0.0
2015-Mar-16 09:32N 32°08' W 081°09'0 0.0
2015-Mar-16 08:32N 32°08' W 081°09'0 0.0
2015-Mar-16 07:32N 32°08' W 081°09'0 0.0
2015-Mar-16 06:32N 32°08' W 081°09'0 0.0
2015-Mar-16 05:32N 32°08' W 081°09'0 0.0
2015-Mar-16 04:32N 32°08' W 081°09'0 0.0
2015-Mar-16 03:32N 32°08' W 081°09'0 0.0
2015-Mar-16 02:32N 32°08' W 081°09'0 0.0
2015-Mar-16 01:29N 32°08' W 081°09'0 0.0
2015-Mar-16 00:32N 32°08' W 081°09'0 0.0
2015-Mar-15 23:32N 32°08' W 081°09'0 0.0
2015-Mar-15 22:32N 32°08' W 081°09'0 0.0
2015-Mar-15 21:32N 32°08' W 081°09'0 0.0
2015-Mar-15 20:32N 32°08' W 081°09'0 0.0
2015-Mar-15 19:33N 32°08' W 081°09'4 3.9
2015-Mar-15 18:33N 32°05' W 081°06'7 7.1
2015-Mar-15 17:33N 32°04' W 080°57'10 9.8
2015-Mar-15 16:33N 31°60' W 080°47'9 9.2
2015-Mar-15 15:33N 31°56' W 080°37'11 5.7
2015-Mar-15 13:32N 31°56' W 080°24'  
2015-Mar-12 13:04N 39°34' W 073°54'1121.0
2015-Mar-12 12:33N 39°45' W 073°53'4314.2
2015-Mar-12 09:33N 40°27' W 073°50'1111.5
2015-Mar-12 08:33N 40°35' W 074°02'7 7.0
2015-Mar-12 07:33N 40°39' W 074°09'1 1.2
2015-Mar-12 06:29N 40°41' W 074°09'0 0.0
2015-Mar-12 05:29N 40°41' W 074°09'0 0.0
2015-Mar-12 04:29N 40°41' W 074°09'0 0.0
2015-Mar-12 03:29N 40°41' W 074°09'0 0.0
2015-Mar-12 02:29N 40°41' W 074°09'0 0.0
2015-Mar-12 01:32N 40°41' W 074°09'0 0.0
2015-Mar-12 00:29N 40°41' W 074°09'0 0.0
2015-Mar-11 23:32N 40°41' W 074°09'0 0.0
2015-Mar-11 22:29N 40°41' W 074°09'0 0.0
2015-Mar-11 21:32N 40°41' W 074°09'0 0.0
2015-Mar-11 20:29N 40°41' W 074°09'0 0.0
2015-Mar-11 19:29N 40°41' W 074°09'0 0.0
2015-Mar-11 18:29N 40°41' W 074°09'0 0.0
2015-Mar-11 17:29N 40°41' W 074°09'0 0.0
2015-Mar-11 16:29N 40°41' W 074°09'0 0.0
2015-Mar-11 15:32N 40°41' W 074°09'0 0.0
2015-Mar-11 14:29N 40°41' W 074°09'0 0.0
2015-Mar-11 13:29N 40°41' W 074°09'0 0.0
2015-Mar-11 12:29N 40°41' W 074°09'0 0.0
2015-Mar-11 11:29N 40°41' W 074°09'0 0.0
2015-Mar-11 10:29N 40°41' W 074°09'0 0.0
2015-Mar-11 09:29N 40°41' W 074°09'0 0.0
2015-Mar-11 08:29N 40°41' W 074°09'0 0.0
2015-Mar-11 07:29N 40°41' W 074°09'0 0.0
2015-Mar-11 06:29N 40°41' W 074°09'0 0.0
2015-Mar-11 05:26N 40°41' W 074°09'0 0.0
2015-Mar-11 04:29N 40°41' W 074°09'0 0.0
2015-Mar-11 03:29N 40°41' W 074°09'0 0.0
2015-Mar-11 02:23N 40°41' W 074°09'0 0.0
2015-Mar-11 01:29N 40°41' W 074°09'0 0.0
2015-Mar-11 00:23N 40°41' W 074°09'0 0.0
2015-Mar-10 23:29N 40°41' W 074°09'0 0.0
2015-Mar-10 22:29N 40°41' W 074°09'0 0.0
2015-Mar-10 21:29N 40°41' W 074°09'0 0.0
2015-Mar-10 20:29N 40°41' W 074°09'0 0.0
2015-Mar-10 19:29N 40°41' W 074°09'0 0.0
2015-Mar-10 18:32N 40°41' W 074°09'0 0.0
2015-Mar-10 17:29N 40°41' W 074°09'0 0.0
2015-Mar-10 16:29N 40°41' W 074°09'0 0.0
2015-Mar-10 15:29N 40°41' W 074°09'0 0.0
2015-Mar-10 14:29N 40°41' W 074°09'0 0.0
2015-Mar-10 13:32N 40°41' W 074°09'0 0.0
2015-Mar-10 12:32N 40°41' W 074°09'0 0.0
2015-Mar-10 11:33N 40°41' W 074°09'2 2.2
2015-Mar-10 10:33N 40°39' W 074°09'5 5.2
2015-Mar-10 09:33N 40°36' W 074°03'11 9.4
2015-Mar-10 08:24N 40°28' W 073°52'49 9.2
2015-Mar-10 03:06N 40°30' W 072°48'916.4
2015-Mar-10 02:33N 40°31' W 072°36'1918.7
2015-Mar-10 01:33N 40°31' W 072°12'1919.1
2015-Mar-10 00:34N 40°31' W 071°47'1919.0
2015-Mar-09 23:33N 40°32' W 071°22'1919.2
2015-Mar-09 22:34N 40°32' W 070°57'1815.3
2015-Mar-09 21:25N 40°33' W 070°34'  
Track history (hours):
 
Tides and Currents Weather Stations Pressure Air Temp Water Temp Dewpoint Dewpoint Depression Visibility Wind Speed Wind Dir Waves Ship Positions

Suez Canal Bridge

Last reported at 2015-Mar-17 14:33 UTC. Time now 2015-Apr-02 06:38 UTC.
Position N 31°51' W 080°06'.
Warning: this ship's position is 15 days out of date.

Length 284.7 m; beam 40 m.

Type: Cargo ship. MMSI: 353704000.

Date/timePositionNaut miles runAvg speedWind from/ knotsBaromVisibWave heightAir tempDewpointWater temp
2015-Mar-17 14:33N 31°51' W 080°06'1717.2
2015-Mar-17 13:33N 31°55' W 080°26'9 9.4
2015-Mar-17 12:33N 31°56' W 080°37'1111.2
2015-Mar-17 11:33N 32°01' W 080°49'1111.4
2015-Mar-17 10:34N 32°06' W 081°01'5 5.3
2015-Mar-17 09:34N 32°06' W 081°07'2 2.2
2015-Mar-17 08:32N 32°08' W 081°09'0 0.0
2015-Mar-17 07:32N 32°08' W 081°09'0 0.0
2015-Mar-17 06:32N 32°08' W 081°09'0 0.0
2015-Mar-17 05:32N 32°08' W 081°09'0 0.0
2015-Mar-17 04:32N 32°08' W 081°09'0 0.0
2015-Mar-17 03:32N 32°08' W 081°09'0 0.0
2015-Mar-17 02:32N 32°08' W 081°09'0 0.0
2015-Mar-17 01:32N 32°08' W 081°09'0 0.0
2015-Mar-17 00:32N 32°08' W 081°09'0 0.0
2015-Mar-16 23:32N 32°08' W 081°09'0 0.0
2015-Mar-16 22:32N 32°08' W 081°09'0 0.0
2015-Mar-16 21:32N 32°08' W 081°09'0 0.0
2015-Mar-16 20:32N 32°08' W 081°09'0 0.0
2015-Mar-16 19:32N 32°08' W 081°09'0 0.0
2015-Mar-16 18:32N 32°08' W 081°09'0 0.0
2015-Mar-16 17:32N 32°08' W 081°09'0 0.0
2015-Mar-16 16:32N 32°08' W 081°09'0 0.0
2015-Mar-16 12:32N 32°08' W 081°09'0 0.0
2015-Mar-16 11:32N 32°08' W 081°09'0 0.0
2015-Mar-16 10:32N 32°08' W 081°09'0 0.0
2015-Mar-16 09:32N 32°08' W 081°09'0 0.0
2015-Mar-16 08:32N 32°08' W 081°09'0 0.0
2015-Mar-16 07:32N 32°08' W 081°09'0 0.0
2015-Mar-16 06:32N 32°08' W 081°09'0 0.0
2015-Mar-16 05:32N 32°08' W 081°09'0 0.0
2015-Mar-16 04:32N 32°08' W 081°09'0 0.0
2015-Mar-16 03:32N 32°08' W 081°09'0 0.0
2015-Mar-16 02:32N 32°08' W 081°09'0 0.0
2015-Mar-16 01:29N 32°08' W 081°09'0 0.0
2015-Mar-16 00:32N 32°08' W 081°09'0 0.0
2015-Mar-15 23:32N 32°08' W 081°09'0 0.0
2015-Mar-15 22:32N 32°08' W 081°09'0 0.0
2015-Mar-15 21:32N 32°08' W 081°09'0 0.0
2015-Mar-15 20:32N 32°08' W 081°09'0 0.0
2015-Mar-15 19:33N 32°08' W 081°09'4 3.9
2015-Mar-15 18:33N 32°05' W 081°06'7 7.1
2015-Mar-15 17:33N 32°04' W 080°57'10 9.8
2015-Mar-15 16:33N 31°60' W 080°47'9 9.2
2015-Mar-15 15:33N 31°56' W 080°37'11 5.7
2015-Mar-15 13:32N 31°56' W 080°24'  
2015-Mar-12 13:04N 39°34' W 073°54'1121.0
2015-Mar-12 12:33N 39°45' W 073°53'4314.2
2015-Mar-12 09:33N 40°27' W 073°50'1111.5
2015-Mar-12 08:33N 40°35' W 074°02'7 7.0
2015-Mar-12 07:33N 40°39' W 074°09'1 1.2
2015-Mar-12 06:29N 40°41' W 074°09'0 0.0
2015-Mar-12 05:29N 40°41' W 074°09'0 0.0
2015-Mar-12 04:29N 40°41' W 074°09'0 0.0
2015-Mar-12 03:29N 40°41' W 074°09'0 0.0
2015-Mar-12 02:29N 40°41' W 074°09'0 0.0
2015-Mar-12 01:32N 40°41' W 074°09'0 0.0
2015-Mar-12 00:29N 40°41' W 074°09'0 0.0
2015-Mar-11 23:32N 40°41' W 074°09'0 0.0
2015-Mar-11 22:29N 40°41' W 074°09'0 0.0
2015-Mar-11 21:32N 40°41' W 074°09'0 0.0
2015-Mar-11 20:29N 40°41' W 074°09'0 0.0
2015-Mar-11 19:29N 40°41' W 074°09'0 0.0
2015-Mar-11 18:29N 40°41' W 074°09'0 0.0
2015-Mar-11 17:29N 40°41' W 074°09'0 0.0
2015-Mar-11 16:29N 40°41' W 074°09'0 0.0
2015-Mar-11 15:32N 40°41' W 074°09'0 0.0
2015-Mar-11 14:29N 40°41' W 074°09'0 0.0
2015-Mar-11 13:29N 40°41' W 074°09'0 0.0
2015-Mar-11 12:29N 40°41' W 074°09'0 0.0
2015-Mar-11 11:29N 40°41' W 074°09'0 0.0
2015-Mar-11 10:29N 40°41' W 074°09'0 0.0
2015-Mar-11 09:29N 40°41' W 074°09'0 0.0
2015-Mar-11 08:29N 40°41' W 074°09'0 0.0
2015-Mar-11 07:29N 40°41' W 074°09'0 0.0
2015-Mar-11 06:29N 40°41' W 074°09'0 0.0
2015-Mar-11 05:26N 40°41' W 074°09'0 0.0
2015-Mar-11 04:29N 40°41' W 074°09'0 0.0
2015-Mar-11 03:29N 40°41' W 074°09'0 0.0
2015-Mar-11 02:23N 40°41' W 074°09'0 0.0
2015-Mar-11 01:29N 40°41' W 074°09'0 0.0
2015-Mar-11 00:23N 40°41' W 074°09'0 0.0
2015-Mar-10 23:29N 40°41' W 074°09'0 0.0
2015-Mar-10 22:29N 40°41' W 074°09'0 0.0
2015-Mar-10 21:29N 40°41' W 074°09'0 0.0
2015-Mar-10 20:29N 40°41' W 074°09'0 0.0
2015-Mar-10 19:29N 40°41' W 074°09'0 0.0
2015-Mar-10 18:32N 40°41' W 074°09'0 0.0
2015-Mar-10 17:29N 40°41' W 074°09'0 0.0
2015-Mar-10 16:29N 40°41' W 074°09'0 0.0
2015-Mar-10 15:29N 40°41' W 074°09'0 0.0
2015-Mar-10 14:29N 40°41' W 074°09'0 0.0
2015-Mar-10 13:32N 40°41' W 074°09'0 0.0
2015-Mar-10 12:32N 40°41' W 074°09'0 0.0
2015-Mar-10 11:33N 40°41' W 074°09'2 2.2
2015-Mar-10 10:33N 40°39' W 074°09'5 5.2
2015-Mar-10 09:33N 40°36' W 074°03'11 9.4
2015-Mar-10 08:24N 40°28' W 073°52'49 9.2
2015-Mar-10 03:06N 40°30' W 072°48'916.4
2015-Mar-10 02:33N 40°31' W 072°36'1918.7
2015-Mar-10 01:33N 40°31' W 072°12'1919.1
2015-Mar-10 00:34N 40°31' W 071°47'1919.0
2015-Mar-09 23:33N 40°32' W 071°22'1919.2
2015-Mar-09 22:34N 40°32' W 070°57'1815.3
2015-Mar-09 21:25N 40°33' W 070°34'  

Dump ship's entire track history